Terminal Aerodrome Forecast
Issued by NWS Charleston, WV

Home | Current Version | Previous Version | Text Only | Print | Product List | Glossary On
Versions: 1 2 3 4 5 6 7 8 9 10 11 12 13 14 15 16 17 18 19 20 21 22
000
FTUS41 KRLX 181100
TAFEKN
TAF
KEKN 181135Z 1812/1912 00000KT 1/4SM FG VV001
     FM181300 00000KT 3SM BR SCT002
     FM181400 00000KT P6SM SCT250
     FM182100 35006KT P6SM SCT250
     FM190100 00000KT P6SM SCT250
     FM190500 00000KT P6SM SCT050
     FM191100 12007KT P6SM SCT050=

USA.gov is the U.S. government's official web portal to all federal, state and local government web resources and services.